Ozgur Aksoy — 9HA2587 — position and weather

sailwx.info

Track history (hours):
 
Tides and Currents Weather Stations Pressure Air Temp Water Temp Dewpoint Dewpoint Depression Visibility Wind Speed Wind Dir Waves Ship Positions

Ozgur Aksoy

Last reported at 2015-Jul-02 07:32 UTC. Time now 2015-Jul-02 08:04 UTC.
Position N 33°32' W 126°33'.

Length 196 m; draft 11.6 m.

Type: Cargo ship. MMSI: 248950000.

Date/timePositionNaut miles runAvg speedWind from/ knotsBaromVisibWave heightAir tempDewpointWater temp
2015-Jul-02 07:32N 33°32' W 126°33'1411.8
2015-Jul-02 06:23N 33°24' W 126°20'1011.7
2015-Jul-02 05:31N 33°18' W 126°10'1411.6
2015-Jul-02 04:21N 33°10' W 125°57'1011.5
2015-Jul-02 03:30N 33°04' W 125°47'1111.7
2015-Jul-02 02:33N 32°58' W 125°37'2311.6
2015-Jul-02 00:33N 32°44' W 125°14'1512.0
2015-Jul-01 23:17N 32°35' W 124°60'911.8
2015-Jul-01 22:33N 32°30' W 124°52'2912.2
2015-Jul-01 20:08N 32°12' W 124°24'711.8
2015-Jul-01 19:33N 32°08' W 124°17'1411.8
2015-Jul-01 18:25N 31°59' W 124°05'1011.5
2015-Jul-01 17:33N 31°54' W 123°55'1410.0
2015-Jul-01 16:06N 31°45' W 123°42'1211.6
2015-Jul-01 15:04N 31°38' W 123°30'611.7
2015-Jul-01 14:33N 31°34' W 123°25'2811.6
2015-Jul-01 12:09N 31°18' W 122°58'711.6
2015-Jul-01 11:33N 31°14' W 122°52'1211.7
2015-Jul-01 10:32N 31°07' W 122°41'1211.6
2015-Jul-01 09:30N 30°60' W 122°29'1111.7
2015-Jul-01 08:32N 30°53' W 122°19'1311.7
2015-Jul-01 07:27N 30°45' W 122°07'3411.7
2015-Jul-01 04:33N 30°24' W 121°36'1311.8
2015-Jul-01 03:28N 30°16' W 121°25'1111.6
2015-Jul-01 02:32N 30°09' W 121°15'1511.6
2015-Jul-01 01:17N 29°59' W 121°03'911.7
2015-Jul-01 00:32N 29°53' W 120°56'4711.9
2015-Jun-30 20:32N 29°21' W 120°15'1212.1
2015-Jun-30 19:33N 29°13' W 120°05'1212.1
2015-Jun-30 18:33N 29°05' W 119°55'1212.0
2015-Jun-30 17:32N 28°57' W 119°44'1212.0
2015-Jun-30 16:33N 28°49' W 119°34'1212.0
2015-Jun-30 15:33N 28°41' W 119°25'1211.9
2015-Jun-30 14:33N 28°33' W 119°15'1211.9
2015-Jun-30 13:33N 28°25' W 119°05'1411.7
2015-Jun-30 12:23N 28°16' W 118°53'1511.4
2015-Jun-30 11:06N 28°07' W 118°40'2211.2
2015-Jun-30 09:07N 27°53' W 118°21'1211.4
2015-Jun-30 08:04N 27°45' W 118°11'611.2
2015-Jun-30 07:33N 27°41' W 118°06'1111.3
2015-Jun-30 06:33N 27°33' W 117°57'1211.5
2015-Jun-30 05:32N 27°25' W 117°47'1111.6
2015-Jun-30 04:33N 27°18' W 117°37'  
Track history (hours):
 
Tides and Currents Weather Stations Pressure Air Temp Water Temp Dewpoint Dewpoint Depression Visibility Wind Speed Wind Dir Waves Ship Positions

Ozgur Aksoy

Last reported at 2015-Jul-02 07:32 UTC. Time now 2015-Jul-02 08:04 UTC.
Position N 33°32' W 126°33'.

Length 196 m; draft 11.6 m.

Type: Cargo ship. MMSI: 248950000.

Date/timePositionNaut miles runAvg speedWind from/ knotsBaromVisibWave heightAir tempDewpointWater temp
2015-Jul-02 07:32N 33°32' W 126°33'1411.8
2015-Jul-02 06:23N 33°24' W 126°20'1011.7
2015-Jul-02 05:31N 33°18' W 126°10'1411.6
2015-Jul-02 04:21N 33°10' W 125°57'1011.5
2015-Jul-02 03:30N 33°04' W 125°47'1111.7
2015-Jul-02 02:33N 32°58' W 125°37'2311.6
2015-Jul-02 00:33N 32°44' W 125°14'1512.0
2015-Jul-01 23:17N 32°35' W 124°60'911.8
2015-Jul-01 22:33N 32°30' W 124°52'2912.2
2015-Jul-01 20:08N 32°12' W 124°24'711.8
2015-Jul-01 19:33N 32°08' W 124°17'1411.8
2015-Jul-01 18:25N 31°59' W 124°05'1011.5
2015-Jul-01 17:33N 31°54' W 123°55'1410.0
2015-Jul-01 16:06N 31°45' W 123°42'1211.6
2015-Jul-01 15:04N 31°38' W 123°30'611.7
2015-Jul-01 14:33N 31°34' W 123°25'2811.6
2015-Jul-01 12:09N 31°18' W 122°58'711.6
2015-Jul-01 11:33N 31°14' W 122°52'1211.7
2015-Jul-01 10:32N 31°07' W 122°41'1211.6
2015-Jul-01 09:30N 30°60' W 122°29'1111.7
2015-Jul-01 08:32N 30°53' W 122°19'1311.7
2015-Jul-01 07:27N 30°45' W 122°07'3411.7
2015-Jul-01 04:33N 30°24' W 121°36'1311.8
2015-Jul-01 03:28N 30°16' W 121°25'1111.6
2015-Jul-01 02:32N 30°09' W 121°15'1511.6
2015-Jul-01 01:17N 29°59' W 121°03'911.7
2015-Jul-01 00:32N 29°53' W 120°56'4711.9
2015-Jun-30 20:32N 29°21' W 120°15'1212.1
2015-Jun-30 19:33N 29°13' W 120°05'1212.1
2015-Jun-30 18:33N 29°05' W 119°55'1212.0
2015-Jun-30 17:32N 28°57' W 119°44'1212.0
2015-Jun-30 16:33N 28°49' W 119°34'1212.0
2015-Jun-30 15:33N 28°41' W 119°25'1211.9
2015-Jun-30 14:33N 28°33' W 119°15'1211.9
2015-Jun-30 13:33N 28°25' W 119°05'1411.7
2015-Jun-30 12:23N 28°16' W 118°53'1511.4
2015-Jun-30 11:06N 28°07' W 118°40'2211.2
2015-Jun-30 09:07N 27°53' W 118°21'1211.4
2015-Jun-30 08:04N 27°45' W 118°11'611.2
2015-Jun-30 07:33N 27°41' W 118°06'1111.3
2015-Jun-30 06:33N 27°33' W 117°57'1211.5
2015-Jun-30 05:32N 27°25' W 117°47'1111.6
2015-Jun-30 04:33N 27°18' W 117°37'  

Dump ship's entire track history